Airfield :
LOGIN :

Register | Disclaimer

   EN    FR    IT 

 










Legend :    VFR   Marginal VFR   IFR   Intensive IFR   Very Intensive IFR
Visi :
Ceiling :
>= 8 km
>= 3000ft
5 to 8 km
1000 to 3000 ft
1500m to 5 km
500 to 1000 ft
800 to 1500m
200 to 500 ft
< 800m
< 200 ft
Symbols :   Thunderstorms  Fog  Heavy snow  Heavy precipitations  Wind > 20 kt
SIGMETs :     Misc.  Thunderstorms  Icing  Turbulence  Mountain Waves  Volcanic Ashes







- Airport Elevation : 495 ft
- IATA code : BUD


LHBP - Budapest Ferihegy

CURRENT METAR :
  • 251100Z 12008KT 090V150 9999 SCT032 18/10 Q1023 NOSIG

EXPIRED METARs :
  • 251030Z 12008KT 090V160 9999 SCT030 18/11 Q1023 NOSIG
  • 251000Z 10007KT 040V140 9999 SCT028 18/10 Q1023 NOSIG
  • 250930Z 09007KT 050V140 9999 SCT025 17/11 Q1023 NOSIG
  • 250900Z 10007KT 060V130 9999 SCT023 16/11 Q1023 NOSIG
  • 250830Z 10006KT 020V190 9999 SCT020 16/11 Q1023 NOSIG

TAF TAF LHBP
Valid from the 25 at 06:00 until the 26 at 06:00 UTC


250515Z 2506/2606 VRB03KT 9999 SCT027 SCT075
TEMPO 2506/2508 3000 BR SCT010 BKN025
BECMG 2508/2510 07007KT SCT030
BECMG 2516/2519 CAVOK
TEMPO 2522/2604 -RA BKN040 OVC070
No reported NOTAMs for that airfield.



MET'MAP, your aeronautical weather chart ! - Copyright ORBIFLY December 2007 - Disclaimer

ORBIFLY MET'MAP TEAM :

Programming & Development : Alexandra Zaïnal
Concept & Development : Baudouin d'Aumeries
Co-Development & Prog : Marc-Olivier Méhu
Technical & hardware support : Manuel Goepfert

Contact : metmap@orbifly.com




SOURCES & CREDITS :

   NOAA